Time;durP1;ratioP1;P1;durP2;ratioP2;P2;SDS_P1;SDS_P2;PMS_P1;PMS_P2;Temp;Humidity;BMP_temperature;BMP_pressure;BME280_temperature;BME280_humidity;BME280_pressure;Samples;Min_cycle;Max_cycle;Signal;HPM_P1;HPM_P2
2021/11/18 00:01:50;;;;;;;13.77;7.13;;;6.10;99.90;;;;;;5066748;28;20041;-91
2021/11/18 00:04:16;;;;;;;14.65;7.20;;;6.10;99.90;;;;;;5036443;28;20552;-91
2021/11/18 00:06:44;;;;;;;17.92;7.93;;;6.10;99.90;;;;;;5041232;28;20041;-90
2021/11/18 00:09:11;;;;;;;14.52;7.45;;;6.10;99.90;;;;;;5035749;28;20124;-91
2021/11/18 00:11:39;;;;;;;15.85;7.32;;;6.10;99.90;;;;;;5033789;28;20025;-91
2021/11/18 00:14:07;;;;;;;12.48;6.75;;;6.10;99.90;;;;;;5032151;28;20037;-90
2021/11/18 00:16:34;;;;;;;12.20;6.22;;;6.00;99.90;;;;;;5038781;28;20024;-90
2021/11/18 00:19:04;;;;;;;12.90;6.25;;;6.00;99.90;;;;;;5044785;28;20018;-90
2021/11/18 00:21:35;;;;;;;11.13;6.38;;;6.00;99.90;;;;;;5036220;28;20025;-91
2021/11/18 00:24:06;;;;;;;16.70;7.22;;;5.90;99.90;;;;;;5050633;28;20542;-91
2021/11/18 00:26:33;;;;;;;18.20;7.75;;;5.90;99.90;;;;;;5022026;28;20029;-92
2021/11/18 00:29:05;;;;;;;12.52;6.78;;;5.90;99.90;;;;;;5043884;28;20087;-90
2021/11/18 00:31:35;;;;;;;13.93;7.68;;;6.00;99.90;;;;;;5038449;28;20614;-90
2021/11/18 00:34:02;;;;;;;14.70;6.88;;;5.90;99.90;;;;;;5049284;28;20036;-91
2021/11/18 00:36:28;;;;;;;16.65;7.07;;;5.90;99.90;;;;;;5038542;28;20049;-90
2021/11/18 00:38:55;;;;;;;16.80;7.40;;;5.90;99.90;;;;;;5043905;28;20084;-91
2021/11/18 00:41:22;;;;;;;15.13;6.97;;;5.90;99.90;;;;;;5032249;28;20430;-90
2021/11/18 00:43:49;;;;;;;16.85;7.38;;;5.90;99.90;;;;;;5048894;28;20681;-90
2021/11/18 00:46:16;;;;;;;15.50;6.93;;;5.90;99.90;;;;;;5034235;28;20064;-91
2021/11/18 00:48:42;;;;;;;14.60;6.70;;;5.90;99.90;;;;;;5033758;28;20029;-91
2021/11/18 00:51:19;;;;;;;13.30;6.32;;;5.90;99.90;;;;;;5046519;28;20044;-90
2021/11/18 00:53:52;;;;;;;13.85;5.93;;;5.80;99.90;;;;;;5051060;28;20059;-90
2021/11/18 00:56:21;;;;;;;10.25;6.28;;;5.80;99.90;;;;;;5033038;28;20044;-90
2021/11/18 00:58:48;;;;;;;15.15;5.80;;;5.80;99.90;;;;;;5033282;28;20474;-91
2021/11/18 01:01:16;;;;;;;10.27;5.85;;;5.70;99.90;;;;;;5037330;28;20100;-91
2021/11/18 01:03:42;;;;;;;15.02;6.15;;;5.70;99.90;;;;;;5064064;28;20052;-91
2021/11/18 01:06:09;;;;;;;16.60;6.50;;;5.70;99.90;;;;;;5051390;28;20029;-91
2021/11/18 01:08:36;;;;;;;10.32;5.82;;;5.70;99.90;;;;;;5045665;28;20112;-91
2021/11/18 01:11:05;;;;;;;17.52;7.10;;;5.70;99.90;;;;;;5031690;28;20025;-91
2021/11/18 01:13:33;;;;;;;13.95;6.63;;;5.70;99.90;;;;;;5044313;28;20056;-91
2021/11/18 01:16:00;;;;;;;11.35;6.45;;;5.70;99.90;;;;;;5068393;28;20094;-90
2021/11/18 01:18:26;;;;;;;16.27;8.30;;;5.70;99.90;;;;;;5047043;28;20046;-90
2021/11/18 01:20:53;;;;;;;13.50;7.32;;;5.70;99.90;;;;;;5039454;28;20082;-90
2021/11/18 01:23:24;;;;;;;14.70;7.50;;;5.70;99.90;;;;;;5038391;28;20125;-90
2021/11/18 01:25:52;;;;;;;14.48;6.55;;;5.70;99.90;;;;;;5014793;28;20041;-91
2021/11/18 01:28:21;;;;;;;15.77;7.28;;;5.70;99.90;;;;;;5028328;28;20116;-91
2021/11/18 01:30:46;;;;;;;16.83;8.25;;;5.70;99.90;;;;;;5024907;28;20094;-91
2021/11/18 01:33:15;;;;;;;14.90;8.13;;;5.70;99.90;;;;;;5042509;28;20036;-91
2021/11/18 01:35:44;;;;;;;16.42;8.82;;;5.70;99.90;;;;;;5036590;28;20507;-91
2021/11/18 01:38:10;;;;;;;17.73;7.88;;;5.70;99.90;;;;;;5052050;28;20025;-91
2021/11/18 01:40:39;;;;;;;15.18;7.93;;;5.70;99.90;;;;;;5046152;28;20033;-91
2021/11/18 01:43:09;;;;;;;12.48;7.40;;;5.70;99.90;;;;;;5034669;28;20028;-91
2021/11/18 01:45:37;;;;;;;13.10;7.93;;;5.70;99.90;;;;;;5033125;28;20030;-92
2021/11/18 01:48:05;;;;;;;15.80;7.30;;;5.70;99.90;;;;;;5034075;28;20128;-90
2021/11/18 01:50:34;;;;;;;13.73;7.32;;;5.60;99.90;;;;;;5016939;28;20029;-91
2021/11/18 01:53:04;;;;;;;13.57;7.07;;;5.60;99.90;;;;;;5041503;28;20488;-91
2021/11/18 01:55:31;;;;;;;14.75;7.38;;;5.60;99.90;;;;;;5037648;28;20465;-90
2021/11/18 01:58:01;;;;;;;15.00;6.82;;;5.60;99.90;;;;;;5034167;28;20030;-91
2021/11/18 02:00:51;;;;;;;13.32;6.93;;;5.50;99.90;;;;;;5039398;28;20163;-91
2021/11/18 02:03:17;;;;;;;13.15;7.00;;;5.50;99.90;;;;;;5042558;28;20507;-92
2021/11/18 02:06:12;;;;;;;13.52;7.40;;;5.50;99.90;;;;;;5020513;28;20116;-90
2021/11/18 02:08:38;;;;;;;16.20;8.73;;;5.50;99.90;;;;;;5039965;28;20049;-91
2021/11/18 02:11:15;;;;;;;13.60;8.32;;;5.50;99.90;;;;;;5036145;28;20037;-91
2021/11/18 02:13:41;;;;;;;15.77;8.27;;;5.60;99.90;;;;;;5051807;28;20041;-91
2021/11/18 02:16:12;;;;;;;18.08;9.88;;;5.60;99.90;;;;;;5049784;28;20029;-91
2021/11/18 02:18:40;;;;;;;17.38;9.73;;;5.60;99.90;;;;;;5031631;28;20048;-91
2021/11/18 02:21:12;;;;;;;18.67;9.35;;;5.70;99.90;;;;;;5040596;28;20049;-90
2021/11/18 02:23:46;;;;;;;19.10;9.77;;;5.70;99.90;;;;;;5018364;28;20084;-91
2021/11/18 02:26:13;;;;;;;16.63;9.52;;;5.70;99.90;;;;;;5048264;28;20306;-91
2021/11/18 02:28:42;;;;;;;19.88;9.73;;;5.80;99.90;;;;;;5036829;28;20056;-91
2021/11/18 02:31:29;;;;;;;21.73;10.40;;;5.80;99.90;;;;;;5038994;28;20033;-91
2021/11/18 02:33:57;;;;;;;23.85;11.27;;;5.80;99.90;;;;;;5046171;28;20089;-90
2021/11/18 02:36:24;;;;;;;19.52;10.27;;;5.80;99.90;;;;;;5029264;28;20069;-90
2021/11/18 02:38:51;;;;;;;16.50;10.02;;;5.80;99.90;;;;;;5030311;28;20033;-91
2021/11/18 02:41:18;;;;;;;21.55;11.05;;;5.80;99.90;;;;;;5041410;28;20033;-90
2021/11/18 02:43:45;;;;;;;18.88;9.98;;;5.80;99.90;;;;;;5034505;28;20665;-90
2021/11/18 02:46:13;;;;;;;16.35;9.80;;;5.70;99.90;;;;;;5045928;28;20029;-91
2021/11/18 02:48:40;;;;;;;14.50;8.77;;;5.80;99.90;;;;;;5020322;28;20052;-91
2021/11/18 02:51:10;;;;;;;16.80;10.23;;;5.70;99.90;;;;;;5049685;28;20098;-91
2021/11/18 02:53:37;;;;;;;18.40;10.32;;;5.80;99.90;;;;;;5049599;28;20029;-91
2021/11/18 02:56:04;;;;;;;17.15;9.20;;;5.80;99.90;;;;;;5034204;28;20076;-90
2021/11/18 02:58:32;;;;;;;16.73;10.18;;;5.80;99.90;;;;;;5044245;28;20030;-90
2021/11/18 03:01:03;;;;;;;22.67;11.13;;;5.90;99.90;;;;;;5034900;28;20101;-90
2021/11/18 03:03:31;;;;;;;20.85;11.68;;;5.90;99.90;;;;;;5042469;28;20033;-90
2021/11/18 03:05:58;;;;;;;22.77;11.75;;;6.00;99.90;;;;;;5032594;28;20041;-91
2021/11/18 03:08:25;;;;;;;18.10;10.63;;;6.10;99.90;;;;;;5027664;28;20041;-90
2021/11/18 03:10:53;;;;;;;18.73;10.65;;;6.10;99.90;;;;;;5037460;28;20025;-91
2021/11/18 03:13:21;;;;;;;17.90;10.52;;;6.10;99.90;;;;;;5037556;28;20061;-91
2021/11/18 03:15:48;;;;;;;15.32;9.98;;;6.20;99.90;;;;;;5046000;28;20016;-91
2021/11/18 03:18:14;;;;;;;20.55;11.07;;;6.20;99.90;;;;;;5032366;28;20049;-90
2021/11/18 03:20:42;;;;;;;23.23;11.18;;;6.20;99.90;;;;;;5035457;28;20109;-91
2021/11/18 03:23:11;;;;;;;22.83;11.05;;;6.30;99.90;;;;;;5034708;28;20093;-90
2021/11/18 03:25:38;;;;;;;24.42;12.23;;;6.30;99.90;;;;;;5017680;28;20507;-90
2021/11/18 03:28:06;;;;;;;25.80;11.63;;;6.30;99.90;;;;;;5033223;28;20025;-91
2021/11/18 03:30:35;;;;;;;19.92;10.95;;;6.30;99.90;;;;;;5033537;28;20053;-90
2021/11/18 03:33:06;;;;;;;19.63;10.27;;;6.30;99.90;;;;;;5034485;28;20025;-91
2021/11/18 03:35:35;;;;;;;20.85;11.25;;;6.40;99.90;;;;;;5031257;28;20072;-91
2021/11/18 03:38:03;;;;;;;22.10;10.98;;;6.40;99.90;;;;;;5035268;28;20101;-91
2021/11/18 03:40:30;;;;;;;23.15;11.18;;;6.40;99.90;;;;;;5036448;28;20025;-91
2021/11/18 03:43:00;;;;;;;29.52;13.95;;;6.40;99.90;;;;;;5033277;28;20034;-90
2021/11/18 03:45:30;;;;;;;21.75;11.82;;;6.50;99.90;;;;;;5033205;28;20102;-90
2021/11/18 03:47:56;;;;;;;22.95;11.65;;;6.50;99.90;;;;;;5033266;28;20030;-90
2021/11/18 03:50:22;;;;;;;21.55;11.35;;;6.50;99.90;;;;;;5033436;28;20084;-90
2021/11/18 03:52:49;;;;;;;20.80;10.60;;;6.50;99.90;;;;;;5033893;28;20473;-91
2021/11/18 03:55:17;;;;;;;21.17;11.00;;;6.60;99.90;;;;;;5034261;28;20033;-90
2021/11/18 03:57:47;;;;;;;22.65;11.25;;;6.60;99.90;;;;;;5066670;28;20033;-91
2021/11/18 04:00:23;;;;;;;19.75;12.57;;;6.60;99.90;;;;;;5040091;28;20022;-92
2021/11/18 04:02:49;;;;;;;20.83;12.00;;;6.60;99.90;;;;;;5037007;28;20048;-91
2021/11/18 04:05:16;;;;;;;21.60;12.52;;;6.60;99.90;;;;;;5052533;28;20037;-93
2021/11/18 04:07:44;;;;;;;25.30;11.55;;;6.70;99.90;;;;;;5036422;28;20044;-91
2021/11/18 04:10:15;;;;;;;21.42;10.93;;;6.70;99.90;;;;;;5052883;28;20028;-90
2021/11/18 04:12:43;;;;;;;24.40;12.05;;;6.70;99.90;;;;;;5069959;28;20033;-91
2021/11/18 04:15:11;;;;;;;22.38;11.93;;;6.70;99.90;;;;;;5036126;28;20094;-92
2021/11/18 04:17:37;;;;;;;20.55;10.88;;;6.70;99.90;;;;;;5053853;28;20032;-91
2021/11/18 04:20:07;;;;;;;23.95;11.70;;;6.70;99.90;;;;;;5052384;28;20025;-90
2021/11/18 04:22:36;;;;;;;22.75;12.50;;;6.70;99.90;;;;;;5052874;28;20069;-91
2021/11/18 04:25:05;;;;;;;26.88;12.20;;;6.80;99.90;;;;;;5053162;28;20025;-91
2021/11/18 04:27:34;;;;;;;25.13;13.07;;;6.80;99.90;;;;;;5052553;28;20478;-91
2021/11/18 04:30:00;;;;;;;26.33;13.82;;;6.80;99.90;;;;;;5036378;28;20476;-91
2021/11/18 04:32:28;;;;;;;26.38;14.00;;;6.80;99.90;;;;;;5053242;28;20048;-91
2021/11/18 04:34:55;;;;;;;28.35;12.93;;;6.80;99.90;;;;;;5052307;28;20035;-91
2021/11/18 04:37:23;;;;;;;24.88;12.52;;;6.80;99.90;;;;;;5053871;28;20040;-91
2021/11/18 04:39:52;;;;;;;19.60;11.00;;;6.90;99.90;;;;;;5052945;28;20017;-91
2021/11/18 04:42:19;;;;;;;18.98;11.30;;;6.80;99.90;;;;;;5052749;28;20036;-91
2021/11/18 04:44:45;;;;;;;22.88;11.75;;;6.90;99.90;;;;;;5052905;28;20415;-90
2021/11/18 04:47:12;;;;;;;16.95;9.13;;;6.90;99.90;;;;;;5054347;28;20021;-91
2021/11/18 04:49:45;;;;;;;22.58;10.90;;;6.90;99.90;;;;;;5056544;28;20044;-91
2021/11/18 04:52:13;;;;;;;21.67;11.65;;;6.80;99.90;;;;;;5040975;28;20048;-90
2021/11/18 04:54:41;;;;;;;24.35;12.45;;;6.90;99.90;;;;;;5056322;28;20465;-91
2021/11/18 04:57:09;;;;;;;20.77;11.77;;;6.90;99.90;;;;;;5056800;28;20041;-91
2021/11/18 04:59:36;;;;;;;24.70;12.73;;;6.80;99.90;;;;;;5055960;28;20029;-91
2021/11/18 05:02:03;;;;;;;25.55;12.15;;;6.90;99.90;;;;;;5055957;28;20041;-91
2021/11/18 05:04:29;;;;;;;25.88;12.55;;;6.90;99.90;;;;;;5055784;28;20033;-92
2021/11/18 05:06:56;;;;;;;30.48;14.07;;;6.90;99.90;;;;;;5057088;28;20025;-91
2021/11/18 05:09:24;;;;;;;25.77;13.43;;;6.90;99.90;;;;;;5038915;28;20040;-91
2021/11/18 05:11:51;;;;;;;23.42;12.85;;;6.90;99.90;;;;;;5039991;28;20025;-91
2021/11/18 05:14:17;;;;;;;28.55;13.40;;;6.90;99.90;;;;;;5057095;28;20115;-91
2021/11/18 05:16:44;;;;;;;27.35;14.48;;;6.90;99.90;;;;;;5058158;28;20025;-90
2021/11/18 05:19:10;;;;;;;22.48;13.75;;;6.90;99.90;;;;;;5040078;28;20036;-90
2021/11/18 05:21:35;;;;;;;32.17;14.27;;;6.90;99.90;;;;;;5039073;28;20025;-91
2021/11/18 05:24:05;;;;;;;25.60;13.05;;;6.90;99.90;;;;;;5056300;28;20086;-91
2021/11/18 05:26:32;;;;;;;21.02;12.38;;;6.90;99.90;;;;;;5055864;28;20028;-91
2021/11/18 05:28:58;;;;;;;23.30;12.60;;;6.90;99.90;;;;;;5039052;28;20052;-90
2021/11/18 05:31:30;;;;;;;30.67;14.80;;;6.90;99.90;;;;;;5055713;28;20124;-90
2021/11/18 05:33:57;;;;;;;33.83;14.75;;;6.90;99.90;;;;;;5050935;28;20148;-90
2021/11/18 05:36:23;;;;;;;29.83;15.23;;;6.90;99.90;;;;;;5035757;28;20100;-91
2021/11/18 05:38:49;;;;;;;25.77;13.65;;;7.00;99.90;;;;;;5033774;28;20029;-91
2021/11/18 05:41:16;;;;;;;31.45;14.38;;;7.00;99.90;;;;;;5035772;28;20029;-91
2021/11/18 05:43:49;;;;;;;32.10;15.15;;;7.00;99.90;;;;;;5034258;28;20033;-91
2021/11/18 05:46:18;;;;;;;31.48;14.48;;;7.00;99.90;;;;;;5034838;28;20037;-90
2021/11/18 05:48:45;;;;;;;23.95;12.60;;;7.00;99.90;;;;;;5034859;28;20052;-90
2021/11/18 05:51:12;;;;;;;28.15;14.02;;;7.00;99.90;;;;;;5034976;28;20480;-90
2021/11/18 05:53:43;;;;;;;29.73;13.65;;;7.10;99.90;;;;;;5034076;28;20082;-90
2021/11/18 05:56:12;;;;;;;30.08;14.70;;;7.00;99.90;;;;;;5035928;28;20045;-90
2021/11/18 05:58:40;;;;;;;29.77;13.30;;;7.10;99.90;;;;;;5034514;28;20068;-90
2021/11/18 06:01:10;;;;;;;33.80;15.55;;;7.10;99.90;;;;;;5034489;28;20492;-90
2021/11/18 06:03:38;;;;;;;29.77;15.50;;;7.10;99.90;;;;;;5035948;28;20053;-90
2021/11/18 06:06:09;;;;;;;28.88;15.45;;;7.10;99.90;;;;;;5034681;28;20524;-90
2021/11/18 06:08:36;;;;;;;30.27;14.23;;;7.10;99.90;;;;;;5034861;28;20083;-91
2021/11/18 06:11:03;;;;;;;37.75;15.52;;;7.10;99.90;;;;;;5034266;28;20024;-90
2021/11/18 06:13:29;;;;;;;31.88;15.02;;;7.20;99.90;;;;;;5034383;28;20029;-91
2021/11/18 06:15:56;;;;;;;30.30;14.07;;;7.20;99.90;;;;;;5034792;28;20025;-91
2021/11/18 06:18:22;;;;;;;31.55;15.30;;;7.20;99.90;;;;;;5033901;28;20488;-91
2021/11/18 06:20:48;;;;;;;31.95;15.07;;;7.20;99.90;;;;;;5034624;28;20775;-91
2021/11/18 06:23:14;;;;;;;41.35;16.55;;;7.20;99.90;;;;;;5034154;28;20029;-90
2021/11/18 06:25:42;;;;;;;43.85;17.55;;;7.20;99.90;;;;;;5034600;28;20051;-91
2021/11/18 06:28:10;;;;;;;32.80;15.57;;;7.20;99.90;;;;;;5034722;28;20033;-91
2021/11/18 06:30:45;;;;;;;35.20;16.20;;;7.30;99.90;;;;;;5034552;28;20034;-91
2021/11/18 06:33:11;;;;;;;29.05;15.00;;;7.20;99.90;;;;;;5033529;28;20468;-91
2021/11/18 06:35:38;;;;;;;27.98;13.85;;;7.30;99.90;;;;;;5033426;28;20053;-91
2021/11/18 06:38:05;;;;;;;31.60;14.73;;;7.30;99.90;;;;;;5034326;28;20562;-91
2021/11/18 06:40:31;;;;;;;32.45;14.65;;;7.30;99.90;;;;;;5034621;28;20034;-90
2021/11/18 06:43:02;;;;;;;33.10;14.07;;;7.30;99.90;;;;;;5034015;28;20362;-91
2021/11/18 06:45:33;;;;;;;29.70;14.07;;;7.30;99.90;;;;;;5035398;28;20047;-93
2021/11/18 06:47:58;;;;;;;31.85;14.70;;;7.20;99.90;;;;;;5018084;28;20424;-92
2021/11/18 06:50:24;;;;;;;35.88;14.70;;;7.30;99.90;;;;;;5051013;28;20034;-93
2021/11/18 06:52:52;;;;;;;27.75;13.90;;;7.30;99.90;;;;;;5042169;28;20045;-92
2021/11/18 06:55:18;;;;;;;39.38;16.50;;;7.30;99.90;;;;;;5039090;28;20033;-92
2021/11/18 06:57:46;;;;;;;25.98;13.68;;;7.20;99.90;;;;;;5035677;28;20037;-93
2021/11/18 07:00:14;;;;;;;26.38;12.63;;;7.20;99.90;;;;;;5045212;28;20029;-91
2021/11/18 07:02:42;;;;;;;28.85;13.77;;;7.20;99.90;;;;;;5041298;28;20037;-92
2021/11/18 07:05:08;;;;;;;39.92;15.02;;;7.20;99.90;;;;;;5051845;28;20056;-92
2021/11/18 07:07:33;;;;;;;35.17;16.05;;;7.30;99.90;;;;;;5033500;28;20469;-93
2021/11/18 07:10:02;;;;;;;43.40;16.25;;;7.30;99.90;;;;;;5032853;28;20026;-91
2021/11/18 07:12:32;;;;;;;31.85;15.73;;;7.30;99.90;;;;;;5033994;28;20029;-92
2021/11/18 07:14:59;;;;;;;34.47;15.90;;;7.30;99.90;;;;;;5034583;28;20030;-92
2021/11/18 07:17:27;;;;;;;39.60;15.18;;;7.20;99.90;;;;;;5018686;28;20033;-92
2021/11/18 07:19:52;;;;;;;40.38;15.70;;;7.30;99.90;;;;;;5032759;28;20053;-92
2021/11/18 07:22:20;;;;;;;37.33;14.95;;;7.30;99.90;;;;;;5045363;28;20040;-92
2021/11/18 07:24:52;;;;;;;33.42;14.48;;;7.30;99.90;;;;;;5070234;28;20025;-91
2021/11/18 07:27:17;;;;;;;30.88;14.00;;;7.30;99.90;;;;;;5039278;28;20488;-92
2021/11/18 07:29:53;;;;;;;39.25;15.68;;;7.30;99.90;;;;;;5046536;28;20104;-91
2021/11/18 07:32:21;;;;;;;29.35;14.43;;;7.30;99.90;;;;;;5018771;28;20026;-91
2021/11/18 07:34:47;;;;;;;39.28;16.77;;;7.30;99.90;;;;;;5033031;28;20036;-91
2021/11/18 07:37:13;;;;;;;36.13;14.90;;;7.30;99.90;;;;;;5032350;28;20363;-92
2021/11/18 07:39:40;;;;;;;34.60;15.20;;;7.30;99.90;;;;;;5039070;28;20033;-92
2021/11/18 07:42:08;;;;;;;23.23;11.52;;;7.30;99.90;;;;;;5053003;28;20032;-91
2021/11/18 07:44:35;;;;;;;34.72;14.90;;;7.30;99.90;;;;;;5037019;28;20108;-92
2021/11/18 07:47:01;;;;;;;35.80;16.20;;;7.30;99.90;;;;;;5035874;28;20033;-92
2021/11/18 07:49:28;;;;;;;34.95;16.38;;;7.30;99.90;;;;;;5037401;28;20033;-92
2021/11/18 07:51:54;;;;;;;34.65;14.13;;;7.30;99.90;;;;;;5054516;28;20147;-92
2021/11/18 07:54:24;;;;;;;34.63;14.30;;;7.20;99.90;;;;;;5053457;28;20056;-92
2021/11/18 07:56:52;;;;;;;30.40;14.25;;;7.20;99.90;;;;;;5037081;28;20032;-91
2021/11/18 07:59:19;;;;;;;34.28;15.02;;;7.20;99.90;;;;;;5033161;28;20030;-93
2021/11/18 08:01:46;;;;;;;40.15;17.17;;;7.20;99.90;;;;;;5033894;28;20067;-91
2021/11/18 08:04:13;;;;;;;34.28;15.85;;;7.30;99.90;;;;;;5032679;28;20503;-92
2021/11/18 08:06:42;;;;;;;33.83;16.40;;;7.30;99.90;;;;;;5031685;28;20025;-92
2021/11/18 08:09:12;;;;;;;37.22;16.60;;;7.30;99.90;;;;;;5041824;28;20040;-90
2021/11/18 08:11:46;;;;;;;43.85;18.48;;;7.30;99.90;;;;;;5053397;28;20388;-91
2021/11/18 08:14:14;;;;;;;41.10;18.42;;;7.30;99.90;;;;;;5042766;28;20046;-92
2021/11/18 08:16:43;;;;;;;38.42;16.48;;;7.40;99.90;;;;;;5038834;28;20026;-92
2021/11/18 08:19:10;;;;;;;38.00;16.10;;;7.40;99.90;;;;;;5034846;28;20042;-91
2021/11/18 08:21:37;;;;;;;41.20;18.58;;;7.50;99.90;;;;;;5053903;28;20017;-92
2021/11/18 08:24:05;;;;;;;43.20;18.77;;;7.50;99.90;;;;;;5057022;28;20108;-93
2021/11/18 08:26:32;;;;;;;41.15;18.60;;;7.50;99.90;;;;;;5048440;28;20461;-91
2021/11/18 08:29:00;;;;;;;44.03;19.13;;;7.60;99.90;;;;;;5037179;28;20361;-92
2021/11/18 08:31:28;;;;;;;42.67;19.95;;;7.70;99.90;;;;;;5036006;28;20025;-91
2021/11/18 08:33:54;;;;;;;38.85;19.20;;;7.70;99.90;;;;;;5036480;28;20072;-90
2021/11/18 08:36:20;;;;;;;43.10;19.73;;;7.80;99.90;;;;;;5035743;28;20077;-91
2021/11/18 08:38:49;;;;;;;40.75;18.92;;;7.80;99.90;;;;;;5051784;28;20494;-91
2021/11/18 08:41:17;;;;;;;47.15;18.92;;;7.90;99.90;;;;;;5037319;28;20026;-91
2021/11/18 08:43:49;;;;;;;47.35;19.13;;;7.90;99.90;;;;;;5039899;28;20032;-90
2021/11/18 08:46:19;;;;;;;41.55;20.20;;;8.10;99.90;;;;;;5045181;28;20048;-91
2021/11/18 08:48:45;;;;;;;37.85;18.95;;;8.40;99.90;;;;;;5038208;28;20029;-90
2021/11/18 08:51:13;;;;;;;35.33;18.63;;;8.90;99.90;;;;;;5037872;28;20025;-91
2021/11/18 08:53:42;;;;;;;38.95;17.23;;;9.40;99.90;;;;;;5056067;28;20367;-90
2021/11/18 08:56:08;;;;;;;46.00;18.95;;;9.90;99.90;;;;;;5045852;28;20048;-90
2021/11/18 08:58:39;;;;;;;37.67;18.98;;;10.10;99.90;;;;;;5035835;28;20029;-90
2021/11/18 09:01:09;;;;;;;41.33;17.55;;;10.40;99.90;;;;;;5036007;28;20030;-90
2021/11/18 09:03:39;;;;;;;35.22;16.45;;;10.50;99.90;;;;;;5043551;28;20025;-90
2021/11/18 09:06:08;;;;;;;37.58;16.73;;;10.90;99.90;;;;;;5046120;28;20022;-90
2021/11/18 09:08:35;;;;;;;35.83;15.73;;;11.30;99.90;;;;;;5035708;28;20045;-90
2021/11/18 09:11:05;;;;;;;32.78;14.57;;;11.60;99.90;;;;;;5052811;28;20075;-90
2021/11/18 09:13:32;;;;;;;29.95;14.32;;;11.80;99.90;;;;;;5038066;28;20505;-90
2021/11/18 09:16:03;;;;;;;30.15;14.20;;;11.90;99.90;;;;;;5036599;28;20025;-90
2021/11/18 09:18:29;;;;;;;34.88;14.30;;;12.00;99.90;;;;;;5035957;28;20116;-90
2021/11/18 09:20:58;;;;;;;29.98;14.13;;;12.30;99.90;;;;;;5036578;28;20559;-90
2021/11/18 09:23:38;;;;;;;28.88;13.63;;;12.80;99.90;;;;;;5016876;28;20036;-90
2021/11/18 09:26:06;;;;;;;27.70;12.50;;;13.30;99.90;;;;;;5019596;28;20733;-90
2021/11/18 09:28:32;;;;;;;26.77;11.40;;;13.70;99.90;;;;;;5037021;28;20208;-91
2021/11/18 09:31:06;;;;;;;28.48;11.43;;;13.90;99.90;;;;;;5052087;28;20036;-90
2021/11/18 09:33:32;;;;;;;19.05;10.43;;;14.10;99.90;;;;;;5038974;28;20134;-88
2021/11/18 09:36:05;;;;;;;25.63;11.27;;;14.60;99.90;;;;;;5046995;28;20041;-90
2021/11/18 09:38:35;;;;;;;26.13;11.68;;;14.90;99.90;;;;;;5034913;28;20044;-90
2021/11/18 09:41:36;;;;;;;29.75;12.27;;;15.20;99.90;;;;;;5053368;28;20024;-89
2021/11/18 09:44:40;;;;;;;30.25;12.75;;;15.10;99.90;;;;;;5028921;28;20029;-90
2021/11/18 09:47:40;;;;;;;32.30;12.15;;;14.90;99.90;;;;;;5041333;28;20072;-88
2021/11/18 09:50:32;;;;;;;31.42;13.52;;;15.10;99.90;;;;;;5034628;28;20485;-88
2021/11/18 09:53:36;;;;;;;32.58;13.32;;;15.20;99.90;;;;;;5051438;28;20037;-88
2021/11/18 09:56:24;;;;;;;30.27;11.98;;;15.40;99.90;;;;;;5041817;28;20025;-89
2021/11/18 09:59:24;;;;;;;29.42;12.65;;;15.70;99.90;;;;;;5052093;28;20032;-88
2021/11/18 10:02:29;;;;;;;27.35;12.60;;;15.60;99.90;;;;;;5037315;28;20461;-88
2021/11/18 10:05:26;;;;;;;24.63;11.25;;;15.60;99.90;;;;;;5034979;28;20038;-88
2021/11/18 10:08:07;;;;;;;27.83;11.38;;;15.90;99.90;;;;;;5038012;28;20040;-90
2021/11/18 10:10:47;;;;;;;30.63;12.85;;;16.10;99.90;;;;;;5035294;28;20076;-90
2021/11/18 10:13:35;;;;;;;28.70;10.85;;;16.30;99.90;;;;;;5051162;28;20480;-89
2021/11/18 10:16:31;;;;;;;25.48;10.85;;;16.50;99.90;;;;;;5042719;28;20373;-89
2021/11/18 10:19:05;;;;;;;25.88;10.88;;;16.10;99.90;;;;;;5049270;28;20037;-90
2021/11/18 10:21:44;;;;;;;27.67;10.98;;;14.80;99.90;;;;;;5036484;28;20040;-90
2021/11/18 10:24:18;;;;;;;30.10;11.65;;;14.60;99.90;;;;;;5044359;28;20037;-90
2021/11/18 10:26:56;;;;;;;25.45;10.40;;;15.00;99.90;;;;;;5033836;28;20025;-89
2021/11/18 10:29:29;;;;;;;26.55;10.90;;;15.50;99.90;;;;;;5022178;28;20028;-89
2021/11/18 10:32:04;;;;;;;;;;;15.70;99.90;;;;;;5047137;28;20116;-88
2021/11/18 10:34:49;;;;;;;26.10;9.85;;;15.90;99.90;;;;;;5047073;28;19920;-90
2021/11/18 10:37:26;;;;;;;21.05;9.95;;;15.80;99.90;;;;;;5035605;28;20053;-89
2021/11/18 10:39:52;;;;;;;21.38;10.68;;;15.80;99.90;;;;;;5033934;28;20032;-88
2021/11/18 10:42:19;;;;;;;26.83;10.38;;;16.00;99.90;;;;;;5046598;28;20484;-88
2021/11/18 10:44:59;;;;;;;24.15;9.85;;;15.70;99.90;;;;;;5039181;28;20031;-88
2021/11/18 10:47:33;;;;;;;25.90;10.38;;;15.90;99.90;;;;;;5025140;28;20033;-88
2021/11/18 10:50:14;;;;;;;25.48;9.45;;;16.20;99.90;;;;;;5042347;28;20099;-88
2021/11/18 10:53:07;;;;;;;25.77;9.73;;;16.50;99.90;;;;;;5054847;28;20028;-88
2021/11/18 10:55:42;;;;;;;23.77;10.27;;;16.60;99.90;;;;;;5023514;28;20021;-89
2021/11/18 10:58:27;;;;;;;21.20;9.50;;;16.70;99.90;;;;;;5032159;28;20025;-90
2021/11/18 11:01:25;;;;;;;18.38;8.45;;;16.80;99.90;;;;;;5033269;28;20021;-89
2021/11/18 11:03:53;;;;;;;26.48;9.55;;;17.00;99.90;;;;;;5023468;28;20477;-89
2021/11/18 11:06:22;;;;;;;24.30;10.00;;;17.00;99.90;;;;;;5053640;28;20033;-89
2021/11/18 11:08:57;;;;;;;26.27;9.57;;;17.10;99.90;;;;;;5032977;28;20030;-88
2021/11/18 11:11:48;;;;;;;25.25;9.43;;;17.20;99.90;;;;;;5022042;28;20091;-88
2021/11/18 11:14:24;;;;;;;27.92;9.43;;;16.90;99.90;;;;;;5053379;28;20040;-89
2021/11/18 11:17:45;;;;;;;20.38;8.93;;;16.90;99.90;;;;;;5047902;28;20404;-89
2021/11/18 11:20:30;;;;;;;21.83;9.07;;;17.00;99.90;;;;;;5013763;28;20476;-87
2021/11/18 11:23:27;;;;;;;23.42;9.95;;;17.00;99.90;;;;;;5046254;28;20037;-88
2021/11/18 11:26:24;;;;;;;22.05;8.70;;;17.00;99.90;;;;;;5044053;28;20151;-88
2021/11/18 11:29:29;;;;;;;21.00;8.20;;;17.20;99.90;;;;;;5031705;28;20033;-89
2021/11/18 11:32:31;;;;;;;24.05;8.68;;;17.50;99.90;;;;;;5043998;28;20101;-90
2021/11/18 11:35:22;;;;;;;24.27;7.20;;;17.60;99.90;;;;;;5046343;28;20094;-89
2021/11/18 11:38:12;;;;;;;23.52;7.55;;;17.40;99.90;;;;;;5044887;28;20053;-90
2021/11/18 11:40:53;;;;;;;21.63;7.60;;;17.30;99.90;;;;;;5041225;28;20073;-90
2021/11/18 11:43:40;;;;;;;22.38;7.22;;;17.00;99.90;;;;;;5039789;28;20037;-89
2021/11/18 11:46:33;;;;;;;19.75;6.20;;;16.70;99.90;;;;;;5032240;28;20056;-88
2021/11/18 11:49:29;;;;;;;20.17;7.53;;;16.50;99.90;;;;;;5048277;28;20033;-89
2021/11/18 11:52:17;;;;;;;19.52;6.95;;;16.50;99.90;;;;;;5032226;28;20044;-89
2021/11/18 11:55:06;;;;;;;18.23;6.88;;;16.30;99.90;;;;;;5032641;28;20033;-89
2021/11/18 11:57:51;;;;;;;16.75;7.03;;;15.60;99.90;;;;;;5032355;28;20091;-88
2021/11/18 12:00:41;;;;;;;18.77;6.32;;;14.90;99.90;;;;;;5031741;28;20025;-86
2021/11/18 12:03:58;;;;;;;20.63;6.90;;;14.30;99.90;;;;;;5034125;28;20021;-88
2021/11/18 12:06:29;;;;;;;14.98;5.90;;;13.80;99.90;;;;;;5034045;28;20021;-87
2021/11/18 12:09:26;;;;;;;19.50;5.55;;;13.40;99.90;;;;;;5052733;28;20029;-87
2021/11/18 12:12:17;;;;;;;23.42;7.03;;;13.30;99.90;;;;;;5035925;28;20497;-87
2021/11/18 12:14:46;;;;;;;21.23;7.47;;;13.10;99.90;;;;;;5046412;28;20049;-87
2021/11/18 12:17:33;;;;;;;22.48;8.23;;;12.80;99.90;;;;;;5033647;28;20032;-87
2021/11/18 12:20:28;;;;;;;18.73;6.70;;;12.80;99.90;;;;;;5039294;28;20020;-87
2021/11/18 12:23:01;;;;;;;22.92;7.35;;;12.70;99.90;;;;;;5049965;28;20040;-86
2021/11/18 12:25:52;;;;;;;19.95;6.90;;;12.70;99.90;;;;;;5020554;28;20495;-87
2021/11/18 12:28:29;;;;;;;21.35;6.63;;;12.60;99.90;;;;;;5036122;28;20037;-87
2021/11/18 12:31:17;;;;;;;23.92;7.45;;;12.60;99.90;;;;;;5031912;28;20095;-87
2021/11/18 12:34:12;;;;;;;21.52;6.75;;;12.50;99.90;;;;;;5044828;28;20428;-87
2021/11/18 12:36:54;;;;;;;17.83;6.65;;;12.50;99.90;;;;;;5043846;28;20057;-86
2021/11/18 12:39:47;;;;;;;19.05;6.05;;;12.50;99.90;;;;;;5034702;28;20476;-88
2021/11/18 12:42:38;;;;;;;20.33;6.65;;;12.50;99.90;;;;;;5057703;28;20099;-88
2021/11/18 12:45:21;;;;;;;22.52;7.57;;;12.50;99.90;;;;;;5048563;28;20108;-87
2021/11/18 12:47:50;;;;;;;25.20;7.23;;;12.60;99.90;;;;;;5041852;28;20478;-87
2021/11/18 12:50:43;;;;;;;21.30;7.32;;;12.70;99.90;;;;;;5033084;28;20141;-86
2021/11/18 12:53:18;;;;;;;21.65;6.10;;;13.50;99.90;;;;;;5047876;28;20033;-87
2021/11/18 12:56:11;;;;;;;18.45;6.75;;;14.20;99.90;;;;;;5038228;28;20021;-88
2021/11/18 12:58:46;;;;;;;22.33;6.53;;;14.80;99.90;;;;;;5034549;28;20079;-87
2021/11/18 13:01:25;;;;;;;16.63;5.53;;;15.20;99.90;;;;;;5048780;28;20412;-86
2021/11/18 13:04:01;;;;;;;21.00;6.13;;;15.60;99.90;;;;;;5034859;28;20059;-86
2021/11/18 13:06:30;;;;;;;22.08;6.57;;;15.70;99.90;;;;;;5031437;28;20037;-87